Time;durP1;ratioP1;P1;durP2;ratioP2;P2;SDS_P1;SDS_P2;PMS_P1;PMS_P2;Temp;Humidity;BMP_temperature;BMP_pressure;BME280_temperature;BME280_humidity;BME280_pressure;Samples;Min_cycle;Max_cycle;Signal;HPM_P1;HPM_P2
2022/08/29 00:00:51;;;;;;;17.43;13.90;;;19.50;99.90;;;;;;4950908;28;20691;-89
2022/08/29 00:03:21;;;;;;;15.53;13.67;;;19.50;99.90;;;;;;4949391;28;20207;-87
2022/08/29 00:05:50;;;;;;;16.33;14.63;;;19.60;99.90;;;;;;4948283;28;20305;-89
2022/08/29 00:08:19;;;;;;;16.87;14.80;;;19.60;99.90;;;;;;4958469;28;20221;-88
2022/08/29 00:10:49;;;;;;;16.23;14.53;;;19.60;99.90;;;;;;4949761;28;20475;-89
2022/08/29 00:13:17;;;;;;;17.70;14.90;;;19.60;99.90;;;;;;4944861;28;20194;-89
2022/08/29 00:15:47;;;;;;;17.47;14.73;;;19.50;99.90;;;;;;4945237;28;20252;-88
2022/08/29 00:18:20;;;;;;;16.87;15.07;;;19.60;99.90;;;;;;4949175;28;20200;-88
2022/08/29 00:20:48;;;;;;;16.73;13.83;;;19.60;99.90;;;;;;4941785;28;20295;-87
2022/08/29 00:23:17;;;;;;;17.20;14.40;;;19.60;99.90;;;;;;4948349;28;20686;-87
2022/08/29 00:25:46;;;;;;;17.93;14.63;;;19.60;99.90;;;;;;4952791;28;20597;-86
2022/08/29 00:28:15;;;;;;;16.83;15.03;;;19.50;99.90;;;;;;4970126;28;20224;-88
2022/08/29 00:30:45;;;;;;;18.17;15.77;;;19.50;99.90;;;;;;4960335;28;20726;-89
2022/08/29 00:33:13;;;;;;;15.73;14.07;;;19.60;99.90;;;;;;4964654;28;20204;-88
2022/08/29 00:35:45;;;;;;;18.10;15.27;;;19.60;99.90;;;;;;4971698;28;20216;-86
2022/08/29 00:38:17;;;;;;;17.83;14.57;;;19.60;99.90;;;;;;4970217;28;20205;-87
2022/08/29 00:40:49;;;;;;;16.87;15.20;;;19.60;99.90;;;;;;4973412;28;20264;-88
2022/08/29 00:43:30;;;;;;;18.90;16.50;;;19.60;99.90;;;;;;4970787;28;20185;-87
2022/08/29 00:46:08;;;;;;;19.33;15.90;;;19.60;99.90;;;;;;4949058;28;20209;-89
2022/08/29 00:48:39;;;;;;;20.97;16.37;;;19.60;99.90;;;;;;4947283;28;20766;-88
2022/08/29 00:51:15;;;;;;;18.97;16.33;;;19.60;99.90;;;;;;4952056;28;20546;-88
2022/08/29 00:53:48;;;;;;;21.83;17.47;;;19.70;99.90;;;;;;4969895;28;20182;-88
2022/08/29 00:56:18;;;;;;;19.27;16.50;;;19.60;99.90;;;;;;4966115;28;20228;-86
2022/08/29 00:58:50;;;;;;;19.97;16.60;;;19.70;99.90;;;;;;4962262;28;20208;-85
2022/08/29 01:01:18;;;;;;;21.77;16.90;;;19.70;99.90;;;;;;4947038;28;20257;-86
2022/08/29 01:03:48;;;;;;;19.67;16.73;;;19.60;99.90;;;;;;4960368;28;20201;-87
2022/08/29 01:06:21;;;;;;;21.17;17.10;;;19.70;99.90;;;;;;4968740;28;20240;-86
2022/08/29 01:08:52;;;;;;;23.07;17.17;;;19.60;99.90;;;;;;4942809;28;20328;-86
2022/08/29 01:14:16;;;;;;;23.03;18.97;;;19.60;99.90;;;;;;4944646;28;20665;-85
2022/08/29 01:16:50;;;;;;;22.60;18.23;;;19.60;99.90;;;;;;4947280;28;20220;-86
2022/08/29 01:19:29;;;;;;;21.00;18.63;;;19.60;99.90;;;;;;4947744;28;20672;-87
2022/08/29 01:22:10;;;;;;;21.63;18.37;;;19.60;99.90;;;;;;4944555;28;20901;-86
2022/08/29 01:24:42;;;;;;;21.77;18.10;;;19.70;99.90;;;;;;4946633;28;20292;-87
2022/08/29 01:27:13;;;;;;;23.70;19.47;;;19.60;99.90;;;;;;4947197;28;20311;-87
2022/08/29 01:29:42;;;;;;;27.27;20.37;;;19.60;99.90;;;;;;4964598;28;20252;-86
2022/08/29 01:32:11;;;;;;;25.07;19.93;;;19.60;99.90;;;;;;4970176;28;20221;-86
2022/08/29 01:34:41;;;;;;;26.13;19.77;;;19.50;99.90;;;;;;4950664;28;20911;-86
2022/08/29 01:37:14;;;;;;;23.83;20.27;;;19.50;99.90;;;;;;4948152;28;20236;-86
2022/08/29 01:39:45;;;;;;;24.93;20.60;;;19.50;99.90;;;;;;4971789;28;20193;-85
2022/08/29 01:42:19;;;;;;;25.83;20.17;;;19.40;99.90;;;;;;4963378;28;20212;-86
2022/08/29 01:44:49;;;;;;;25.20;20.33;;;19.40;99.90;;;;;;4958333;28;20216;-86
2022/08/29 01:47:21;;;;;;;25.57;19.87;;;19.30;99.90;;;;;;4956949;28;20205;-86
2022/08/29 01:49:50;;;;;;;26.30;19.30;;;19.30;99.90;;;;;;4956280;28;20229;-86
2022/08/29 01:52:19;;;;;;;24.57;20.43;;;19.30;99.90;;;;;;4956263;28;20275;-86
2022/08/29 01:54:50;;;;;;;25.37;20.43;;;19.30;99.90;;;;;;4956339;28;20209;-86
2022/08/29 01:57:19;;;;;;;25.03;20.07;;;19.20;99.90;;;;;;4955157;28;20200;-87
2022/08/29 01:59:48;;;;;;;25.97;20.50;;;19.20;99.90;;;;;;4953179;28;20197;-86
2022/08/29 02:02:20;;;;;;;27.70;21.00;;;19.20;99.90;;;;;;4949690;28;20201;-86
2022/08/29 02:04:49;;;;;;;26.93;21.03;;;19.10;99.90;;;;;;4947583;28;20208;-86
2022/08/29 02:07:20;;;;;;;32.37;22.07;;;19.20;99.90;;;;;;4951727;28;20208;-86
2022/08/29 02:09:51;;;;;;;28.57;21.97;;;19.10;99.90;;;;;;4957341;28;20216;-86
2022/08/29 02:12:21;;;;;;;30.37;21.70;;;19.10;99.90;;;;;;4970092;28;20197;-87
2022/08/29 02:14:52;;;;;;;29.57;22.27;;;19.10;99.90;;;;;;4963832;28;20281;-85
2022/08/29 02:17:22;;;;;;;30.43;22.47;;;19.20;99.90;;;;;;4958057;28;20358;-86
2022/08/29 02:19:51;;;;;;;27.20;21.10;;;19.10;99.90;;;;;;4957969;28;20212;-85
2022/08/29 02:22:20;;;;;;;29.30;22.03;;;19.20;99.90;;;;;;4959716;28;20211;-86
2022/08/29 02:24:50;;;;;;;29.53;22.33;;;19.20;99.90;;;;;;4975230;28;20216;-85
2022/08/29 02:27:19;;;;;;;30.10;21.87;;;19.20;99.90;;;;;;4971205;28;20187;-86
2022/08/29 02:29:48;;;;;;;32.67;23.50;;;19.10;99.90;;;;;;4975335;28;20212;-85
2022/08/29 02:32:17;;;;;;;33.03;24.30;;;19.30;99.90;;;;;;4974368;28;20197;-88
2022/08/29 02:34:46;;;;;;;37.57;25.97;;;19.20;99.90;;;;;;4972291;28;20536;-86
2022/08/29 02:37:17;;;;;;;37.57;26.27;;;19.30;99.90;;;;;;4975267;28;20217;-86
2022/08/29 02:39:46;;;;;;;38.90;27.17;;;19.30;99.90;;;;;;4968724;28;20193;-83
2022/08/29 02:42:16;;;;;;;38.20;27.10;;;19.30;99.90;;;;;;4969890;28;20185;-86
2022/08/29 02:44:46;;;;;;;35.83;26.10;;;19.20;99.90;;;;;;4972857;28;20231;-87
2022/08/29 02:47:16;;;;;;;37.77;28.10;;;19.30;99.90;;;;;;4969474;28;20228;-86
2022/08/29 02:49:45;;;;;;;36.67;27.20;;;19.30;99.90;;;;;;4972688;28;20422;-87
2022/08/29 02:52:16;;;;;;;40.20;28.10;;;19.30;99.90;;;;;;4970141;28;20455;-88
2022/08/29 02:54:45;;;;;;;36.13;25.53;;;19.40;99.90;;;;;;4972815;28;20205;-86
2022/08/29 02:57:17;;;;;;;37.77;26.83;;;19.40;99.90;;;;;;4974986;28;20197;-87
2022/08/29 02:59:46;;;;;;;36.53;26.23;;;19.40;99.90;;;;;;4966957;28;20437;-84
2022/08/29 03:02:15;;;;;;;36.20;25.93;;;19.40;99.90;;;;;;4957556;28;20680;-84
2022/08/29 03:04:43;;;;;;;33.60;26.13;;;19.50;99.90;;;;;;4953878;28;20404;-86
2022/08/29 03:07:12;;;;;;;35.17;26.60;;;19.50;99.90;;;;;;4959483;28;21125;-87
2022/08/29 03:09:41;;;;;;;40.07;27.00;;;19.50;99.90;;;;;;4962294;28;20249;-88
2022/08/29 03:12:10;;;;;;;38.60;29.07;;;19.50;99.90;;;;;;4963777;28;20205;-87
2022/08/29 03:14:40;;;;;;;35.53;26.97;;;19.50;99.90;;;;;;4954379;28;20228;-87
2022/08/29 03:17:10;;;;;;;37.20;28.03;;;19.60;99.90;;;;;;4960739;28;20423;-87
2022/08/29 03:19:40;;;;;;;38.27;28.80;;;19.60;99.90;;;;;;4968286;28;20209;-86
2022/08/29 03:22:08;;;;;;;39.47;27.47;;;19.60;99.90;;;;;;4965702;28;20338;-85
2022/08/29 03:24:38;;;;;;;36.07;27.43;;;19.60;99.90;;;;;;4954602;28;20227;-86
2022/08/29 03:27:07;;;;;;;38.33;28.83;;;19.60;99.90;;;;;;4970552;28;20780;-86
2022/08/29 03:29:36;;;;;;;35.27;28.33;;;19.60;99.90;;;;;;4969830;28;20410;-86
2022/08/29 03:32:06;;;;;;;40.70;29.10;;;19.70;99.90;;;;;;4971339;28;20190;-87
2022/08/29 03:34:36;;;;;;;39.07;29.30;;;19.70;99.90;;;;;;4972293;28;20230;-87
2022/08/29 03:37:06;;;;;;;39.13;29.60;;;19.60;99.90;;;;;;4975750;28;20241;-86
2022/08/29 03:39:36;;;;;;;37.17;28.90;;;19.70;99.90;;;;;;4973963;28;20197;-87
2022/08/29 03:42:07;;;;;;;41.53;29.67;;;19.60;99.90;;;;;;4973985;28;20221;-88
2022/08/29 03:44:37;;;;;;;37.60;28.70;;;19.70;99.90;;;;;;4974330;28;20192;-87
2022/08/29 03:47:09;;;;;;;39.67;29.67;;;19.70;99.90;;;;;;4963058;28;20994;-86
2022/08/29 03:49:38;;;;;;;36.73;28.97;;;19.70;99.90;;;;;;4967714;28;20427;-87
2022/08/29 03:52:08;;;;;;;38.50;30.50;;;19.80;99.90;;;;;;4971974;28;20399;-87
2022/08/29 03:54:38;;;;;;;37.33;29.03;;;19.80;99.90;;;;;;4972248;28;20205;-86
2022/08/29 03:57:08;;;;;;;36.77;29.10;;;19.80;99.90;;;;;;4974380;28;20256;-87
2022/08/29 03:59:36;;;;;;;36.30;30.23;;;19.80;99.90;;;;;;4968879;28;20196;-87
2022/08/29 04:02:06;;;;;;;36.43;29.97;;;19.80;99.90;;;;;;4945721;28;20567;-86
2022/08/29 04:07:22;;;;;;;38.07;30.50;;;19.80;99.90;;;;;;4947389;28;20247;-79
2022/08/29 04:09:50;;;;;;;36.70;29.23;;;19.90;99.90;;;;;;4946627;28;20205;-83
2022/08/29 04:12:19;;;;;;;38.93;31.47;;;19.90;99.90;;;;;;4945083;28;20283;-84
2022/08/29 04:14:48;;;;;;;40.33;31.83;;;19.90;99.90;;;;;;4949784;28;20679;-83
2022/08/29 04:17:17;;;;;;;40.23;31.33;;;19.90;99.90;;;;;;4940724;28;20228;-79
2022/08/29 04:19:47;;;;;;;39.43;31.23;;;20.00;99.90;;;;;;4934629;28;20256;-82
2022/08/29 04:22:15;;;;;;;39.30;32.33;;;19.90;99.90;;;;;;4944240;28;20213;-84
2022/08/29 04:24:44;;;;;;;37.37;31.13;;;20.00;99.90;;;;;;4949142;28;20465;-80
2022/08/29 04:27:12;;;;;;;38.03;30.53;;;19.90;99.90;;;;;;4946644;28;20304;-79
2022/08/29 04:29:42;;;;;;;37.40;31.27;;;19.90;99.90;;;;;;4963126;28;20193;-78
2022/08/29 04:32:10;;;;;;;37.30;29.87;;;19.90;99.90;;;;;;4954513;28;20639;-83
2022/08/29 04:34:39;;;;;;;35.20;27.13;;;19.80;99.90;;;;;;4950616;28;20204;-79
2022/08/29 04:37:09;;;;;;;35.57;27.83;;;19.80;99.90;;;;;;4951218;28;20905;-81
2022/08/29 04:39:38;;;;;;;37.87;29.07;;;19.80;99.90;;;;;;4950208;28;20297;-82
2022/08/29 04:42:07;;;;;;;32.00;25.23;;;19.80;99.90;;;;;;4952770;28;20213;-79
2022/08/29 04:44:35;;;;;;;31.57;26.47;;;19.80;99.90;;;;;;4952419;28;20308;-79
2022/08/29 04:47:04;;;;;;;33.03;26.47;;;19.70;99.90;;;;;;4950866;28;21117;-82
2022/08/29 04:49:32;;;;;;;28.33;25.23;;;19.70;99.90;;;;;;4945979;28;21097;-78
2022/08/29 04:52:01;;;;;;;31.57;25.10;;;19.70;99.90;;;;;;4954259;28;20237;-80
2022/08/29 04:54:31;;;;;;;27.43;24.43;;;19.70;99.90;;;;;;4949719;28;20506;-77
2022/08/29 04:57:02;;;;;;;28.27;24.97;;;19.70;99.90;;;;;;4955620;28;20201;-78
2022/08/29 04:59:32;;;;;;;28.00;24.33;;;19.60;99.90;;;;;;4949315;28;20201;-79
2022/08/29 05:02:02;;;;;;;27.93;24.87;;;19.60;99.90;;;;;;4949533;28;20225;-82
2022/08/29 05:04:30;;;;;;;24.60;22.00;;;19.70;99.90;;;;;;4943776;28;20214;-80
2022/08/29 05:06:59;;;;;;;25.47;21.57;;;19.70;99.90;;;;;;4949503;28;20247;-78
2022/08/29 05:09:28;;;;;;;20.07;17.60;;;19.70;99.90;;;;;;4946241;28;20205;-81
2022/08/29 05:11:57;;;;;;;15.57;13.93;;;19.60;99.90;;;;;;4945902;28;20236;-81
2022/08/29 05:14:26;;;;;;;14.27;12.87;;;19.60;99.90;;;;;;4946454;28;20277;-78
2022/08/29 05:16:55;;;;;;;14.97;13.57;;;19.60;99.90;;;;;;4954471;28;20252;-78
2022/08/29 05:19:24;;;;;;;12.87;11.57;;;19.60;99.90;;;;;;4940101;28;20578;-80
2022/08/29 05:21:56;;;;;;;11.50;10.33;;;19.60;99.90;;;;;;4946896;28;20257;-80
2022/08/29 05:24:25;;;;;;;9.37;8.30;;;19.60;99.90;;;;;;4939740;28;20205;-81
2022/08/29 05:26:54;;;;;;;9.07;8.10;;;19.60;99.90;;;;;;4941239;28;20706;-77
2022/08/29 05:29:24;;;;;;;9.07;8.13;;;19.60;99.90;;;;;;4940394;28;20213;-80
2022/08/29 05:31:52;;;;;;;5.87;5.37;;;19.60;99.90;;;;;;4941594;28;20221;-82
2022/08/29 05:34:21;;;;;;;5.50;5.00;;;19.50;99.90;;;;;;4948130;28;20291;-77
2022/08/29 05:37:03;;;;;;;5.00;4.60;;;19.60;99.90;;;;;;4954124;28;20217;-78
2022/08/29 05:39:32;;;;;;;7.50;5.20;;;19.60;99.90;;;;;;4954295;28;20295;-77
2022/08/29 05:42:02;;;;;;;5.43;4.93;;;19.50;99.90;;;;;;4952561;28;20221;-79
2022/08/29 05:44:32;;;;;;;5.50;5.10;;;19.50;99.90;;;;;;4938581;28;20284;-80
2022/08/29 05:47:04;;;;;;;5.03;4.63;;;19.60;99.90;;;;;;4943630;28;20255;-81
2022/08/29 05:49:32;;;;;;;5.23;4.73;;;19.60;99.90;;;;;;4934683;28;20202;-78
2022/08/29 05:52:01;;;;;;;5.40;4.90;;;19.50;99.90;;;;;;4935416;28;20315;-81
2022/08/29 05:54:32;;;;;;;6.20;5.70;;;19.60;99.90;;;;;;4937391;28;20201;-80
2022/08/29 05:57:00;;;;;;;6.20;5.70;;;19.50;99.90;;;;;;4936093;28;20205;-78
2022/08/29 05:59:30;;;;;;;6.90;6.20;;;19.50;99.90;;;;;;4909258;28;20491;-83
2022/08/29 06:02:01;;;;;;;7.90;6.20;;;19.50;99.90;;;;;;4930818;28;20217;-85
2022/08/29 06:04:29;;;;;;;7.00;6.30;;;19.50;99.90;;;;;;4907223;28;20213;-81
2022/08/29 06:06:58;;;;;;;7.23;6.20;;;19.50;99.90;;;;;;4931782;28;20213;-82
2022/08/29 06:09:28;;;;;;;6.93;6.30;;;19.60;99.90;;;;;;4922234;28;20718;-80
2022/08/29 06:11:57;;;;;;;6.93;6.27;;;19.60;99.90;;;;;;4914102;28;20515;-82
2022/08/29 06:14:26;;;;;;;7.90;7.20;;;19.60;99.90;;;;;;4923330;28;20251;-82
2022/08/29 06:16:55;;;;;;;7.33;6.53;;;19.60;99.90;;;;;;4913358;28;21411;-79
2022/08/29 06:19:27;;;;;;;6.67;6.03;;;19.60;99.90;;;;;;4916733;28;20280;-84
2022/08/29 06:21:56;;;;;;;7.50;6.80;;;19.60;99.90;;;;;;4913308;28;20273;-81
2022/08/29 06:24:25;;;;;;;6.80;6.20;;;19.70;99.90;;;;;;4916541;28;20213;-84
2022/08/29 06:26:54;;;;;;;7.13;6.50;;;19.90;99.90;;;;;;4916702;28;20204;-81
2022/08/29 06:29:22;;;;;;;7.70;6.77;;;19.90;99.90;;;;;;4925321;28;20932;-78
2022/08/29 06:31:51;;;;;;;7.80;7.00;;;20.00;99.90;;;;;;4924188;28;20253;-82
2022/08/29 06:34:19;;;;;;;7.90;7.10;;;20.10;99.90;;;;;;4922199;28;20307;-79
2022/08/29 06:36:50;;;;;;;8.27;7.50;;;20.30;99.90;;;;;;4921442;28;20215;-84
2022/08/29 06:39:19;;;;;;;7.90;7.20;;;20.50;99.90;;;;;;4913113;28;20206;-77
2022/08/29 06:41:48;;;;;;;8.07;7.27;;;20.60;99.90;;;;;;4905509;28;20551;-78
2022/08/29 06:44:17;;;;;;;8.90;7.20;;;20.80;99.90;;;;;;4916903;28;20213;-80
2022/08/29 06:46:48;;;;;;;7.00;6.10;;;20.70;99.90;;;;;;4931020;28;20210;-79
2022/08/29 06:49:18;;;;;;;7.77;7.07;;;20.70;99.90;;;;;;4914768;28;20376;-83
2022/08/29 06:51:52;;;;;;;7.57;6.87;;;20.60;99.90;;;;;;4916529;28;20273;-82
2022/08/29 06:54:27;;;;;;;8.87;7.97;;;20.60;99.90;;;;;;4899093;28;20205;-79
2022/08/29 06:56:58;;;;;;;9.33;8.37;;;20.60;99.90;;;;;;4916000;28;21772;-80
2022/08/29 06:59:28;;;;;;;9.50;8.60;;;20.70;99.90;;;;;;4907449;28;20300;-84
2022/08/29 07:01:56;;;;;;;8.60;7.80;;;20.70;99.90;;;;;;4917145;28;20807;-81
2022/08/29 07:04:25;;;;;;;10.43;9.07;;;20.70;99.90;;;;;;4909957;28;20861;-82
2022/08/29 07:06:55;;;;;;;9.93;8.93;;;20.70;99.90;;;;;;4910188;28;20296;-82
2022/08/29 07:09:25;;;;;;;10.63;9.53;;;20.60;99.90;;;;;;4902164;28;20317;-84
2022/08/29 07:11:56;;;;;;;11.07;9.93;;;20.50;99.90;;;;;;4911680;28;20231;-80
2022/08/29 07:14:25;;;;;;;11.97;10.63;;;20.50;99.90;;;;;;4911957;28;20431;-80
2022/08/29 07:16:55;;;;;;;12.07;10.63;;;20.50;99.90;;;;;;4918547;28;20231;-79
2022/08/29 07:19:27;;;;;;;12.17;10.93;;;20.50;99.90;;;;;;4909166;28;20209;-80
2022/08/29 07:21:58;;;;;;;12.43;11.23;;;20.50;99.90;;;;;;4915701;28;21167;-84
2022/08/29 07:24:27;;;;;;;12.00;10.80;;;20.60;99.90;;;;;;4910589;28;20324;-77
2022/08/29 07:26:55;;;;;;;12.10;10.53;;;20.60;99.90;;;;;;4923536;28;20672;-82
2022/08/29 07:29:24;;;;;;;11.47;10.27;;;20.60;99.90;;;;;;4928630;28;20655;-80
2022/08/29 07:31:53;;;;;;;10.47;9.37;;;20.70;99.90;;;;;;4922228;28;20217;-81
2022/08/29 07:34:22;;;;;;;11.53;10.33;;;20.70;99.90;;;;;;4920818;28;20634;-82
2022/08/29 07:36:50;;;;;;;11.17;10.07;;;20.70;99.90;;;;;;4917573;28;20588;-82
2022/08/29 07:39:21;;;;;;;11.27;10.17;;;20.70;99.90;;;;;;4899739;28;20227;-82
2022/08/29 07:41:50;;;;;;;10.87;9.73;;;20.80;99.90;;;;;;4914482;28;20227;-81
2022/08/29 07:44:19;;;;;;;11.27;9.57;;;20.80;99.90;;;;;;4908172;28;20299;-82
2022/08/29 07:46:47;;;;;;;11.20;9.57;;;21.00;99.90;;;;;;4918182;28;20703;-82
2022/08/29 07:49:16;;;;;;;10.03;9.13;;;21.10;99.20;;;;;;4906231;28;20205;-81
2022/08/29 07:51:44;;;;;;;10.00;9.00;;;21.10;98.70;;;;;;4910880;28;20820;-79
2022/08/29 07:54:15;;;;;;;10.43;9.43;;;21.10;99.10;;;;;;4907326;28;20275;-83
2022/08/29 07:56:47;;;;;;;13.10;9.37;;;21.10;98.90;;;;;;4916988;28;20482;-79
2022/08/29 07:59:18;;;;;;;10.60;9.43;;;21.10;99.40;;;;;;4913785;28;20546;-82
2022/08/29 08:01:47;;;;;;;10.43;8.97;;;21.00;99.90;;;;;;4908868;28;20525;-79
2022/08/29 08:04:15;;;;;;;9.27;8.27;;;21.00;99.20;;;;;;4905122;28;20722;-84
2022/08/29 08:06:47;;;;;;;14.23;9.33;;;20.80;98.90;;;;;;4904233;28;20212;-79
2022/08/29 08:09:16;;;;;;;8.93;8.10;;;20.70;98.90;;;;;;4907426;28;20323;-83
2022/08/29 08:11:46;;;;;;;11.40;9.13;;;20.60;99.10;;;;;;4906229;28;20396;-79
2022/08/29 08:14:15;;;;;;;11.30;8.70;;;20.50;98.70;;;;;;4916377;28;20239;-82
2022/08/29 08:16:43;;;;;;;10.97;9.57;;;20.40;99.90;;;;;;4917444;28;20365;-80
2022/08/29 08:19:13;;;;;;;10.30;9.17;;;20.50;99.90;;;;;;4916844;28;20231;-79
2022/08/29 08:21:43;;;;;;;10.30;8.53;;;20.70;99.90;;;;;;4908217;28;20488;-84
2022/08/29 08:24:18;;;;;;;8.83;7.93;;;20.90;97.40;;;;;;4899833;28;20210;-83
2022/08/29 08:26:49;;;;;;;10.60;8.27;;;21.00;95.90;;;;;;4902878;28;20213;-81
2022/08/29 08:29:18;;;;;;;10.57;7.78;;;21.30;95.60;;;;;;4887940;29;20819;-83
2022/08/29 08:31:50;;;;;;;10.25;7.47;;;21.50;94.00;;;;;;4898674;29;20827;-82
2022/08/29 08:34:19;;;;;;;8.15;7.32;;;21.80;94.00;;;;;;4896114;28;20470;-82
2022/08/29 08:36:49;;;;;;;8.13;7.32;;;21.90;92.40;;;;;;4897066;28;21002;-85
2022/08/29 08:39:18;;;;;;;8.80;7.90;;;22.00;92.10;;;;;;4899621;28;20547;-79
2022/08/29 08:41:54;;;;;;;8.00;7.20;;;21.90;92.20;;;;;;4902613;28;20206;-77
2022/08/29 08:44:54;;;;;;;10.75;7.90;;;21.80;92.60;;;;;;4904345;28;20645;-79
2022/08/29 08:47:27;;;;;;;8.20;7.32;;;21.80;92.50;;;;;;4899164;28;20397;-81
2022/08/29 08:50:01;;;;;;;8.43;7.63;;;21.60;92.80;;;;;;4893987;28;20233;-80
2022/08/29 08:52:37;;;;;;;7.60;6.90;;;21.70;93.30;;;;;;4903497;28;20209;-81
2022/08/29 08:55:15;;;;;;;9.38;8.57;;;21.80;93.90;;;;;;4905349;28;20216;-81
2022/08/29 08:57:54;;;;;;;10.77;9.32;;;22.00;93.90;;;;;;4903319;28;20458;-82
2022/08/29 09:00:26;;;;;;;11.52;10.35;;;21.90;93.10;;;;;;4881628;28;20210;-82
2022/08/29 09:03:07;;;;;;;12.57;11.25;;;21.80;92.90;;;;;;4895960;28;20205;-83
2022/08/29 09:05:53;;;;;;;13.65;11.32;;;21.60;93.70;;;;;;4906838;28;20729;-82
2022/08/29 09:08:29;;;;;;;13.00;11.57;;;21.40;93.80;;;;;;4901509;28;20548;-78
2022/08/29 09:11:03;;;;;;;14.05;12.60;;;21.40;94.30;;;;;;4896708;28;20205;-84
2022/08/29 09:13:49;;;;;;;12.52;11.30;;;21.40;94.80;;;;;;4896969;28;20226;-79
2022/08/29 09:16:26;;;;;;;16.08;12.20;;;21.50;93.50;;;;;;4898987;28;20230;-79
2022/08/29 09:19:00;;;;;;;13.40;11.98;;;21.70;93.30;;;;;;4894566;28;20407;-81
2022/08/29 09:21:33;;;;;;;13.80;12.45;;;21.70;93.60;;;;;;4898248;28;20209;-79
2022/08/29 09:24:14;;;;;;;15.43;12.43;;;21.80;93.10;;;;;;4897118;28;20216;-79
2022/08/29 09:26:43;;;;;;;12.75;11.45;;;22.00;92.90;;;;;;4894927;29;20253;-82
2022/08/29 09:29:13;;;;;;;10.50;9.57;;;22.20;91.60;;;;;;4908435;28;20317;-82
2022/08/29 09:31:42;;;;;;;12.88;8.88;;;22.30;90.00;;;;;;4897724;28;20874;-82
2022/08/29 09:34:14;;;;;;;12.93;9.20;;;22.10;90.10;;;;;;4902355;28;20230;-82
2022/08/29 09:36:45;;;;;;;14.45;8.38;;;22.00;90.10;;;;;;4898487;28;20210;-81
2022/08/29 09:39:22;;;;;;;7.32;6.60;;;22.10;90.60;;;;;;4897399;29;20225;-76
2022/08/29 09:41:53;;;;;;;7.72;6.28;;;22.20;89.10;;;;;;4897535;28;20495;-83
2022/08/29 09:44:27;;;;;;;7.88;6.68;;;22.60;90.10;;;;;;4900098;28;20206;-78
2022/08/29 09:47:06;;;;;;;6.28;5.68;;;22.80;88.10;;;;;;4889085;28;20685;-81
2022/08/29 09:49:37;;;;;;;8.73;5.82;;;23.00;88.10;;;;;;4885545;28;20466;-80
2022/08/29 09:52:12;;;;;;;6.97;5.45;;;23.20;86.80;;;;;;4892983;28;20962;-80
2022/08/29 09:54:42;;;;;;;6.65;5.63;;;23.20;86.60;;;;;;4884755;28;20280;-80
2022/08/29 09:57:21;;;;;;;7.38;5.90;;;23.20;86.70;;;;;;4890916;28;20208;-82
2022/08/29 10:00:11;;;;;;;7.80;5.75;;;23.30;85.80;;;;;;4879170;28;20434;-81
2022/08/29 10:02:46;;;;;;;6.70;6.07;;;23.20;85.70;;;;;;4889582;28;20747;-81
2022/08/29 10:05:33;;;;;;;9.30;6.03;;;23.00;86.40;;;;;;4903603;28;20237;-82
2022/08/29 10:08:04;;;;;;;6.45;5.68;;;23.10;87.40;;;;;;4901827;28;20252;-81
2022/08/29 10:10:35;;;;;;;5.82;5.22;;;23.00;85.60;;;;;;4903712;29;20215;-80
2022/08/29 10:13:10;;;;;;;5.55;4.88;;;22.80;86.30;;;;;;4905946;28;20214;-82
2022/08/29 10:15:44;;;;;;;6.57;5.03;;;22.90;86.40;;;;;;4911411;28;20228;-82
2022/08/29 10:18:32;;;;;;;8.52;5.35;;;23.00;85.90;;;;;;4907977;28;20277;-78
2022/08/29 10:21:15;;;;;;;7.63;5.75;;;23.20;85.60;;;;;;4901320;28;20206;-82
2022/08/29 10:23:59;;;;;;;4.95;4.55;;;23.20;84.70;;;;;;4908557;28;20206;-82
2022/08/29 10:26:36;;;;;;;6.25;5.05;;;23.20;84.40;;;;;;4909036;29;20202;-78
2022/08/29 10:29:13;;;;;;;6.53;4.10;;;23.10;84.60;;;;;;4899071;28;20231;-84
2022/08/29 10:31:51;;;;;;;7.78;4.18;;;23.00;83.90;;;;;;4907002;28;20213;-81
2022/08/29 10:34:33;;;;;;;6.15;4.10;;;22.90;83.70;;;;;;4915747;29;20240;-81
2022/08/29 10:37:11;;;;;;;4.55;3.60;;;23.00;84.00;;;;;;4912785;28;20221;-80
2022/08/29 10:39:50;;;;;;;4.57;3.65;;;23.30;83.70;;;;;;4915292;28;20268;-83
2022/08/29 10:42:25;;;;;;;6.25;3.83;;;23.30;82.90;;;;;;4917018;28;20384;-81
2022/08/29 10:45:06;;;;;;;5.47;3.55;;;23.30;83.10;;;;;;4920580;28;20806;-83
2022/08/29 10:47:45;;;;;;;5.85;3.55;;;23.30;82.90;;;;;;4915925;28;20226;-80
2022/08/29 10:50:28;;;;;;;6.45;3.25;;;23.40;82.40;;;;;;4904194;28;20459;-85
2022/08/29 10:53:18;;;;;;;5.53;3.50;;;23.30;82.00;;;;;;4913380;28;20235;-83
2022/08/29 10:55:54;;;;;;;3.78;3.47;;;23.30;82.20;;;;;;4916233;28;20245;-81
2022/08/29 10:58:43;;;;;;;6.78;3.60;;;23.30;82.50;;;;;;4899305;28;20526;-86
2022/08/29 11:01:21;;;;;;;3.97;3.42;;;23.30;82.40;;;;;;4888555;28;20739;-84
2022/08/29 11:04:05;;;;;;;4.93;3.15;;;23.40;82.10;;;;;;4897349;28;20312;-82
2022/08/29 11:06:37;;;;;;;5.55;3.30;;;23.20;81.40;;;;;;4897251;28;20226;-81
2022/08/29 11:09:10;;;;;;;4.10;3.60;;;23.20;81.90;;;;;;4892824;28;20240;-80
2022/08/29 11:11:44;;;;;;;4.00;3.60;;;23.20;81.60;;;;;;4893997;28;21013;-83
2022/08/29 11:14:23;;;;;;;4.30;3.22;;;23.30;81.90;;;;;;4891319;29;20313;-82
2022/08/29 11:16:54;;;;;;;4.32;3.53;;;23.40;81.80;;;;;;4899199;29;20481;-83
2022/08/29 11:19:31;;;;;;;5.60;3.40;;;23.40;82.20;;;;;;4890965;28;20209;-83
2022/08/29 11:22:04;;;;;;;5.47;3.33;;;23.30;82.60;;;;;;4910077;28;20510;-81
2022/08/29 11:24:36;;;;;;;5.65;3.25;;;23.30;81.40;;;;;;4913199;29;20260;-80
2022/08/29 11:27:21;;;;;;;7.07;3.80;;;23.40;81.20;;;;;;4909580;28;20293;-83
2022/08/29 11:29:57;;;;;;;4.53;3.35;;;23.40;81.00;;;;;;4915303;28;20224;-83
2022/08/29 11:32:38;;;;;;;6.15;3.53;;;23.30;81.40;;;;;;4900591;28;20864;-85
2022/08/29 11:35:16;;;;;;;4.72;3.78;;;23.20;81.00;;;;;;4896001;28;20982;-83
2022/08/29 11:38:21;;;;;;;5.60;3.30;;;23.10;81.40;;;;;;4894531;29;20324;-83
2022/08/29 11:41:15;;;;;;;4.25;3.22;;;23.20;81.20;;;;;;4883835;28;20238;-81
2022/08/29 11:44:15;;;;;;;6.10;3.40;;;23.30;80.60;;;;;;4892126;28;20751;-84
2022/08/29 11:46:47;;;;;;;3.20;2.90;;;23.30;79.90;;;;;;4895035;28;20309;-81
2022/08/29 11:49:42;;;;;;;5.35;3.20;;;23.40;79.60;;;;;;4889393;29;20672;-83
2022/08/29 11:52:21;;;;;;;3.83;3.50;;;23.50;79.60;;;;;;4899673;28;20695;-82
2022/08/29 11:54:53;;;;;;;4.43;3.60;;;23.60;80.00;;;;;;4899485;28;21021;-81
2022/08/29 11:57:49;;;;;;;5.07;3.72;;;23.60;80.00;;;;;;4906871;28;20897;-82
2022/08/29 12:00:35;;;;;;;3.58;3.20;;;23.60;80.20;;;;;;4902294;28;20214;-80
2022/08/29 12:03:25;;;;;;;6.32;3.90;;;23.50;78.60;;;;;;4901569;29;20273;-82
2022/08/29 12:06:02;;;;;;;5.18;3.60;;;23.40;78.30;;;;;;4912484;28;20201;-77
2022/08/29 12:08:37;;;;;;;6.43;3.63;;;23.40;78.60;;;;;;4903856;28;20442;-81
2022/08/29 12:11:07;;;;;;;4.07;3.40;;;23.20;78.40;;;;;;4898811;28;20702;-80
2022/08/29 12:14:03;;;;;;;4.75;3.97;;;23.20;78.90;;;;;;4900823;28;21869;-79
2022/08/29 12:16:52;;;;;;;5.13;3.40;;;23.10;79.20;;;;;;4858760;29;20603;-86
2022/08/29 12:19:52;;;;;;;4.25;3.70;;;23.10;79.20;;;;;;4836901;29;20230;-80
2022/08/29 12:22:46;;;;;;;3.97;3.22;;;23.20;78.90;;;;;;4857789;29;20691;-82
2022/08/29 12:25:45;;;;;;;4.35;3.90;;;23.30;78.90;;;;;;4855695;29;20214;-79
2022/08/29 12:28:39;;;;;;;4.78;3.97;;;23.40;78.10;;;;;;4863801;29;20215;-80
2022/08/29 12:31:32;;;;;;;4.93;3.60;;;23.40;78.60;;;;;;4877116;29;20556;-82
2022/08/29 12:34:13;;;;;;;4.10;3.42;;;23.60;78.50;;;;;;4860710;29;20219;-80
2022/08/29 12:36:54;;;;;;;4.20;3.33;;;23.90;78.50;;;;;;4858791;29;20242;-83
2022/08/29 12:39:57;;;;;;;4.55;3.45;;;24.10;78.00;;;;;;4862019;29;20219;-83
2022/08/29 12:42:39;;;;;;;5.13;3.20;;;23.90;76.90;;;;;;4833015;29;20250;-86
2022/08/29 12:45:13;;;;;;;3.63;3.28;;;23.60;77.00;;;;;;4833512;29;20224;-83
2022/08/29 12:47:47;;;;;;;3.42;3.05;;;23.40;76.50;;;;;;4839292;29;20227;-89
2022/08/29 12:50:20;;;;;;;4.25;3.13;;;23.50;76.90;;;;;;4842880;29;20218;-87
2022/08/29 12:53:01;;;;;;;5.00;3.38;;;23.50;76.10;;;;;;4851487;29;20234;-85
2022/08/29 12:55:37;;;;;;;5.78;3.03;;;23.60;75.80;;;;;;4871708;29;20368;-87
2022/08/29 12:58:09;;;;;;;4.38;3.10;;;23.60;75.70;;;;;;4867210;29;20207;-88
2022/08/29 13:00:40;;;;;;;3.45;2.85;;;23.80;76.10;;;;;;4865683;29;21102;-86
2022/08/29 13:03:11;;;;;;;4.53;2.90;;;24.00;75.20;;;;;;4870283;29;21229;-87
2022/08/29 13:05:44;;;;;;;3.20;2.90;;;24.10;74.80;;;;;;4871919;29;20204;-88
2022/08/29 13:08:15;;;;;;;3.83;2.63;;;24.10;74.50;;;;;;4875618;29;20246;-84
2022/08/29 13:10:54;;;;;;;4.40;2.83;;;24.10;74.50;;;;;;4873266;29;21087;-88